Time;durP1;ratioP1;P1;durP2;ratioP2;P2;SDS_P1;SDS_P2;PMS_P1;PMS_P2;Temp;Humidity;BMP_temperature;BMP_pressure;BME280_temperature;BME280_humidity;BME280_pressure;Samples;Min_cycle;Max_cycle;Signal;HPM_P1;HPM_P2
2021/08/18 00:00:47;;;;;;;4.75;2.10;;;16.70;91.20;;;;;;4862320;29;20388;-83
2021/08/18 00:03:14;;;;;;;4.75;2.40;;;16.70;91.00;;;;;;4861438;29;20128;-83
2021/08/18 00:05:40;;;;;;;6.15;2.50;;;16.70;90.80;;;;;;4862068;29;20053;-83
2021/08/18 00:08:08;;;;;;;4.50;2.42;;;16.70;90.60;;;;;;4862121;29;20071;-83
2021/08/18 00:10:34;;;;;;;4.47;2.70;;;16.60;90.80;;;;;;4863207;29;20053;-83
2021/08/18 00:13:01;;;;;;;4.97;2.30;;;16.60;90.40;;;;;;4865605;29;20057;-83
2021/08/18 00:15:27;;;;;;;4.93;2.35;;;16.60;90.30;;;;;;4865289;29;20053;-83
2021/08/18 00:17:56;;;;;;;4.80;2.70;;;16.60;90.70;;;;;;4864622;29;20057;-83
2021/08/18 00:20:21;;;;;;;5.82;2.35;;;16.60;90.70;;;;;;4865252;29;20060;-83
2021/08/18 00:22:47;;;;;;;4.60;2.25;;;16.60;90.80;;;;;;4864769;29;20049;-82
2021/08/18 00:25:13;;;;;;;4.03;2.35;;;16.50;90.20;;;;;;4865525;29;20060;-83
2021/08/18 00:27:39;;;;;;;4.57;2.60;;;16.50;90.50;;;;;;4865294;29;20514;-83
2021/08/18 00:30:06;;;;;;;3.65;2.10;;;16.50;90.70;;;;;;4864544;29;20049;-83
2021/08/18 00:32:32;;;;;;;5.28;2.70;;;16.50;90.80;;;;;;4865659;29;20133;-84
2021/08/18 00:34:58;;;;;;;4.00;2.17;;;16.40;90.70;;;;;;4865103;29;20046;-84
2021/08/18 00:37:23;;;;;;;5.00;2.50;;;16.40;90.70;;;;;;4864851;29;20098;-83
2021/08/18 00:39:49;;;;;;;5.85;2.70;;;16.40;90.80;;;;;;4865330;29;20094;-84
2021/08/18 00:42:19;;;;;;;4.28;2.30;;;16.40;90.80;;;;;;4865709;29;20045;-84
2021/08/18 00:44:45;;;;;;;7.10;2.90;;;16.40;91.00;;;;;;4864595;29;20050;-83
2021/08/18 00:47:11;;;;;;;5.40;2.45;;;16.40;90.70;;;;;;4865575;29;20197;-84
2021/08/18 00:49:37;;;;;;;4.32;2.13;;;16.40;90.80;;;;;;4865007;29;20558;-84
2021/08/18 00:52:04;;;;;;;4.93;2.50;;;16.40;90.90;;;;;;4863514;29;20141;-83
2021/08/18 00:54:29;;;;;;;4.72;2.55;;;16.40;90.90;;;;;;4864429;29;20483;-84
2021/08/18 00:56:56;;;;;;;6.40;3.35;;;16.40;90.80;;;;;;4864266;29;20064;-84
2021/08/18 00:59:22;;;;;;;4.30;2.42;;;16.40;90.80;;;;;;4863678;29;20049;-84
2021/08/18 01:01:48;;;;;;;4.78;2.70;;;16.30;90.80;;;;;;4864393;29;20391;-83
2021/08/18 01:04:14;;;;;;;5.90;2.70;;;16.30;90.80;;;;;;4864317;29;20061;-84
2021/08/18 01:06:44;;;;;;;5.55;3.20;;;16.30;90.70;;;;;;4863749;29;20058;-83
2021/08/18 01:09:15;;;;;;;6.43;2.88;;;16.30;90.70;;;;;;4864270;29;20057;-83
2021/08/18 01:11:42;;;;;;;5.85;3.25;;;16.30;90.60;;;;;;4864162;29;20081;-83
2021/08/18 01:14:09;;;;;;;7.38;3.00;;;16.30;90.70;;;;;;4863177;29;20080;-82
2021/08/18 01:16:36;;;;;;;5.60;2.85;;;16.30;90.80;;;;;;4863993;29;20057;-83
2021/08/18 01:19:03;;;;;;;8.10;3.55;;;16.30;90.80;;;;;;4863388;29;20106;-83
2021/08/18 01:21:29;;;;;;;5.68;2.88;;;16.30;90.60;;;;;;4862697;29;20049;-83
2021/08/18 01:23:55;;;;;;;4.47;2.47;;;16.30;90.70;;;;;;4863986;29;20046;-83
2021/08/18 01:26:20;;;;;;;5.38;2.42;;;16.30;90.70;;;;;;4863061;29;20454;-84
2021/08/18 01:28:46;;;;;;;6.40;3.60;;;16.20;90.70;;;;;;4863784;29;20065;-83
2021/08/18 01:31:12;;;;;;;5.90;3.00;;;16.30;90.60;;;;;;4863866;29;20232;-84
2021/08/18 01:33:39;;;;;;;5.80;2.90;;;16.20;90.70;;;;;;4862507;29;20049;-83
2021/08/18 01:36:04;;;;;;;7.55;2.92;;;16.20;90.70;;;;;;4863818;29;20113;-83
2021/08/18 01:38:30;;;;;;;5.90;3.30;;;16.20;90.90;;;;;;4863638;29;20112;-84
2021/08/18 01:40:56;;;;;;;8.10;3.47;;;16.20;91.00;;;;;;4862832;29;20096;-84
2021/08/18 01:43:22;;;;;;;5.13;2.97;;;16.20;90.70;;;;;;4863550;29;20046;-84
2021/08/18 01:45:50;;;;;;;5.03;2.88;;;16.20;90.80;;;;;;4863522;29;20546;-84
2021/08/18 01:48:24;;;;;;;6.65;2.92;;;16.10;90.90;;;;;;4862546;29;20049;-83
2021/08/18 01:50:52;;;;;;;6.72;3.67;;;16.10;90.90;;;;;;4863374;29;20061;-83
2021/08/18 01:53:20;;;;;;;5.50;2.85;;;16.10;90.70;;;;;;4863434;29;20056;-83
2021/08/18 01:55:47;;;;;;;7.32;3.53;;;16.10;90.80;;;;;;4862494;29;20050;-84
2021/08/18 01:58:13;;;;;;;4.90;2.80;;;16.10;90.90;;;;;;4863469;29;20056;-84
2021/08/18 02:00:40;;;;;;;7.47;3.05;;;16.10;90.90;;;;;;4863257;29;20049;-84
2021/08/18 02:03:06;;;;;;;6.07;2.97;;;16.00;90.80;;;;;;4862822;29;20085;-84
2021/08/18 02:05:32;;;;;;;4.95;2.65;;;16.00;90.70;;;;;;4864032;29;20061;-83
2021/08/18 02:07:57;;;;;;;6.55;3.20;;;16.00;90.80;;;;;;4863696;29;20562;-84
2021/08/18 02:10:24;;;;;;;6.50;3.42;;;16.00;90.90;;;;;;4862216;29;20093;-83
2021/08/18 02:12:50;;;;;;;5.90;2.95;;;16.00;90.80;;;;;;4863720;29;20494;-84
2021/08/18 02:15:23;;;;;;;6.38;2.92;;;16.00;90.70;;;;;;4863095;29;20050;-83
2021/08/18 02:17:49;;;;;;;7.15;2.97;;;15.90;91.00;;;;;;4864247;29;20078;-83
2021/08/18 02:20:18;;;;;;;4.57;2.65;;;15.90;90.80;;;;;;4863854;29;20056;-83
2021/08/18 02:22:44;;;;;;;5.47;2.60;;;15.90;90.50;;;;;;4863221;29;20499;-84
2021/08/18 02:25:11;;;;;;;7.13;2.80;;;15.90;90.80;;;;;;4862782;29;20141;-83
2021/08/18 02:27:37;;;;;;;5.97;3.25;;;15.90;91.00;;;;;;4862352;29;20081;-83
2021/08/18 02:30:04;;;;;;;5.45;2.90;;;15.90;90.80;;;;;;4862106;29;20076;-84
2021/08/18 02:32:30;;;;;;;5.72;2.65;;;15.90;90.80;;;;;;4862249;29;20503;-83
2021/08/18 02:34:56;;;;;;;8.25;3.70;;;15.90;90.90;;;;;;4862817;29;20109;-83
2021/08/18 02:37:22;;;;;;;7.55;3.55;;;15.90;91.00;;;;;;4861774;29;20053;-83
2021/08/18 02:39:48;;;;;;;7.65;3.20;;;15.90;91.20;;;;;;4862837;29;20049;-84
2021/08/18 02:42:13;;;;;;;6.95;3.10;;;15.90;91.00;;;;;;4863727;29;20052;-84
2021/08/18 02:44:39;;;;;;;5.22;2.97;;;15.90;90.90;;;;;;4862395;29;20148;-83
2021/08/18 02:47:05;;;;;;;5.10;2.70;;;15.90;90.90;;;;;;4863738;29;20046;-84
2021/08/18 02:49:31;;;;;;;6.25;3.20;;;15.90;91.00;;;;;;4862508;29;20098;-83
2021/08/18 02:51:56;;;;;;;5.90;3.00;;;15.90;90.90;;;;;;4861621;29;20058;-83
2021/08/18 02:54:24;;;;;;;8.65;3.63;;;15.80;90.80;;;;;;4862572;29;20141;-83
2021/08/18 02:56:52;;;;;;;7.22;2.65;;;15.90;91.00;;;;;;4862250;29;20460;-84
2021/08/18 02:59:18;;;;;;;7.90;3.40;;;15.90;90.90;;;;;;4862305;29;20529;-83
2021/08/18 03:01:44;;;;;;;6.13;3.05;;;15.90;91.10;;;;;;4863151;29;20065;-83
2021/08/18 03:04:09;;;;;;;7.05;2.85;;;15.90;91.10;;;;;;4862848;29;20045;-83
2021/08/18 03:06:35;;;;;;;6.68;3.40;;;15.80;91.10;;;;;;4862707;29;20054;-83
2021/08/18 03:09:01;;;;;;;6.90;3.30;;;15.80;91.00;;;;;;4862682;29;20053;-83
2021/08/18 03:11:26;;;;;;;10.00;4.28;;;15.80;91.20;;;;;;4862518;29;20085;-84
2021/08/18 03:13:52;;;;;;;5.78;2.97;;;15.80;91.50;;;;;;4862657;29;20054;-83
2021/08/18 03:16:17;;;;;;;8.82;3.72;;;15.80;91.40;;;;;;4862803;29;20045;-83
2021/08/18 03:18:43;;;;;;;8.45;3.55;;;15.90;91.50;;;;;;4861756;29;20052;-83
2021/08/18 03:21:09;;;;;;;7.45;3.50;;;15.80;91.70;;;;;;4862352;29;20057;-83
2021/08/18 03:23:34;;;;;;;9.27;3.58;;;15.80;91.30;;;;;;4862713;29;20050;-84
2021/08/18 03:26:00;;;;;;;8.43;3.65;;;15.80;91.10;;;;;;4861789;29;20063;-83
2021/08/18 03:28:26;;;;;;;13.55;4.03;;;15.80;91.40;;;;;;4862480;29;20475;-83
2021/08/18 03:30:52;;;;;;;8.15;4.20;;;15.80;91.30;;;;;;4862458;29;20086;-83
2021/08/18 03:33:18;;;;;;;6.90;3.85;;;15.80;91.70;;;;;;4861989;29;20049;-83
2021/08/18 03:35:43;;;;;;;6.35;3.10;;;15.80;91.60;;;;;;4862540;29;20053;-83
2021/08/18 03:38:09;;;;;;;7.78;3.60;;;15.80;91.50;;;;;;4862406;29;20379;-83
2021/08/18 03:40:35;;;;;;;6.45;3.53;;;15.80;91.20;;;;;;4861280;29;20082;-83
2021/08/18 03:43:02;;;;;;;11.20;5.05;;;15.80;91.30;;;;;;4862184;29;20057;-82
2021/08/18 03:45:28;;;;;;;6.90;3.15;;;15.80;91.90;;;;;;4861080;29;20509;-83
2021/08/18 03:47:54;;;;;;;5.60;3.17;;;15.80;91.30;;;;;;4861150;29;20487;-83
2021/08/18 03:50:19;;;;;;;5.35;2.90;;;15.80;91.20;;;;;;4862026;29;20065;-84
2021/08/18 03:52:45;;;;;;;8.25;3.60;;;15.80;91.00;;;;;;4862268;29;20071;-83
2021/08/18 03:55:12;;;;;;;6.13;3.00;;;15.80;91.10;;;;;;4861251;29;20069;-83
2021/08/18 03:57:38;;;;;;;6.28;3.20;;;15.80;90.80;;;;;;4862036;29;20053;-84
2021/08/18 04:00:08;;;;;;;6.20;2.65;;;15.80;91.00;;;;;;4862144;29;20054;-83
2021/08/18 04:02:34;;;;;;;5.53;2.83;;;15.80;91.20;;;;;;4861204;29;20062;-83
2021/08/18 04:05:00;;;;;;;7.80;3.30;;;15.80;91.30;;;;;;4861758;29;20145;-83
2021/08/18 04:07:27;;;;;;;5.00;2.85;;;15.80;91.20;;;;;;4861151;29;20050;-83
2021/08/18 04:09:53;;;;;;;5.20;2.65;;;15.80;91.20;;;;;;4860500;29;20046;-83
2021/08/18 04:12:19;;;;;;;5.03;2.97;;;15.80;91.00;;;;;;4861198;29;20065;-83
2021/08/18 04:14:47;;;;;;;6.88;3.20;;;15.80;91.20;;;;;;4860935;29;20057;-83
2021/08/18 04:17:13;;;;;;;8.18;3.42;;;15.80;91.40;;;;;;4861899;29;20064;-83
2021/08/18 04:19:38;;;;;;;5.57;3.10;;;15.80;91.30;;;;;;4861433;29;20520;-83
2021/08/18 04:22:05;;;;;;;7.90;3.78;;;15.80;91.40;;;;;;4861060;29;20056;-83
2021/08/18 04:24:31;;;;;;;9.27;3.83;;;15.80;91.60;;;;;;4861057;29;20122;-83
2021/08/18 04:26:57;;;;;;;9.35;4.07;;;15.90;91.80;;;;;;4860847;29;20517;-83
2021/08/18 04:29:25;;;;;;;5.32;2.92;;;15.90;91.70;;;;;;4860425;29;20410;-83
2021/08/18 04:31:52;;;;;;;6.80;3.50;;;15.90;91.60;;;;;;4861657;29;20068;-84
2021/08/18 04:34:17;;;;;;;6.97;2.88;;;15.80;91.20;;;;;;4861774;29;20550;-84
2021/08/18 04:36:43;;;;;;;5.90;3.10;;;15.90;91.30;;;;;;4861208;29;20054;-84
2021/08/18 04:39:09;;;;;;;8.52;3.55;;;15.80;91.10;;;;;;4861412;29;20052;-83
2021/08/18 04:41:34;;;;;;;8.30;4.03;;;15.80;91.10;;;;;;4861928;29;20057;-84
2021/08/18 04:44:03;;;;;;;9.63;3.53;;;15.90;91.30;;;;;;4861086;29;20050;-84
2021/08/18 04:46:29;;;;;;;7.93;3.83;;;15.90;91.40;;;;;;4861941;29;20061;-84
2021/08/18 04:48:54;;;;;;;6.97;3.55;;;15.90;91.60;;;;;;4861644;29;20487;-83
2021/08/18 04:51:20;;;;;;;8.88;4.10;;;15.90;91.60;;;;;;4860627;29;20065;-83
2021/08/18 04:53:47;;;;;;;7.97;3.42;;;15.90;91.60;;;;;;4861221;29;20058;-84
2021/08/18 04:56:13;;;;;;;6.38;3.30;;;15.90;91.30;;;;;;4862609;29;20066;-83
2021/08/18 04:58:42;;;;;;;8.57;3.38;;;15.90;91.30;;;;;;4864018;29;20490;-83
2021/08/18 05:01:07;;;;;;;9.27;4.53;;;15.90;91.30;;;;;;4865113;29;20069;-83
2021/08/18 05:03:33;;;;;;;6.72;3.67;;;15.90;91.80;;;;;;4864411;29;20132;-83
2021/08/18 05:05:59;;;;;;;9.93;3.75;;;15.90;91.70;;;;;;4863701;29;20060;-84
2021/08/18 05:08:24;;;;;;;9.60;4.00;;;15.90;91.70;;;;;;4864011;29;20064;-83
2021/08/18 05:10:50;;;;;;;10.95;4.40;;;15.90;92.00;;;;;;4864012;29;20498;-84
2021/08/18 05:13:16;;;;;;;10.30;4.07;;;15.80;92.10;;;;;;4863575;29;20063;-83
2021/08/18 05:15:41;;;;;;;8.70;3.83;;;15.90;92.20;;;;;;4864056;29;20490;-83
2021/08/18 05:18:07;;;;;;;9.60;4.15;;;15.90;92.30;;;;;;4863208;29;20057;-84
2021/08/18 05:20:33;;;;;;;9.02;4.00;;;15.90;92.60;;;;;;4864115;29;20140;-83
2021/08/18 05:22:59;;;;;;;9.32;4.10;;;15.90;92.80;;;;;;4864164;29;20102;-82
2021/08/18 05:25:44;;;;;;;9.57;3.90;;;15.90;92.90;;;;;;4862957;29;20085;-82
2021/08/18 05:28:13;;;;;;;8.30;3.67;;;15.90;92.80;;;;;;4863708;29;20418;-83
2021/08/18 05:30:58;;;;;;;8.20;3.53;;;15.90;93.00;;;;;;4864061;29;20058;-83
2021/08/18 05:33:44;;;;;;;10.48;4.00;;;15.90;93.10;;;;;;4862280;29;20101;-83
2021/08/18 05:36:11;;;;;;;9.77;3.95;;;15.90;93.30;;;;;;4864148;29;20136;-83
2021/08/18 05:38:37;;;;;;;8.13;3.25;;;15.80;93.30;;;;;;4863551;29;20125;-82
2021/08/18 05:41:07;;;;;;;9.27;3.88;;;15.80;93.30;;;;;;4863546;29;20452;-80
2021/08/18 05:43:32;;;;;;;6.50;3.40;;;15.80;93.60;;;;;;4863779;29;20050;-82
2021/08/18 05:46:00;;;;;;;8.00;3.33;;;15.80;93.60;;;;;;4863684;29;20057;-83
2021/08/18 05:48:25;;;;;;;5.35;2.80;;;15.80;93.60;;;;;;4863280;29;20060;-82
2021/08/18 05:50:52;;;;;;;5.40;2.72;;;15.80;93.60;;;;;;4863428;29;20521;-82
2021/08/18 05:53:18;;;;;;;5.68;2.75;;;15.80;93.50;;;;;;4863124;29;20487;-83
2021/08/18 05:55:45;;;;;;;4.70;2.30;;;15.80;93.50;;;;;;4863763;29;20056;-83
2021/08/18 05:58:11;;;;;;;4.75;2.38;;;15.80;93.60;;;;;;4863436;29;20057;-83
2021/08/18 06:00:37;;;;;;;6.63;2.38;;;15.90;93.60;;;;;;4862945;29;20533;-83
2021/08/18 06:03:02;;;;;;;5.82;2.00;;;15.90;93.70;;;;;;4863686;29;20050;-83
2021/08/18 06:05:30;;;;;;;4.70;1.98;;;15.80;93.60;;;;;;4863563;29;20053;-82
2021/08/18 06:07:55;;;;;;;5.22;1.80;;;15.90;93.70;;;;;;4861950;29;20049;-80
2021/08/18 06:10:21;;;;;;;4.40;2.03;;;15.90;93.80;;;;;;4863739;29;20081;-82
2021/08/18 06:12:47;;;;;;;4.47;2.13;;;15.90;93.60;;;;;;4863501;29;20137;-81
2021/08/18 06:15:13;;;;;;;4.90;2.10;;;15.90;93.50;;;;;;4862443;29;20057;-81
2021/08/18 06:17:38;;;;;;;3.38;1.75;;;15.90;93.50;;;;;;4863410;29;20054;-81
2021/08/18 06:20:05;;;;;;;4.80;1.75;;;15.90;93.60;;;;;;4862891;29;20045;-80
2021/08/18 06:22:31;;;;;;;5.22;2.20;;;15.90;93.60;;;;;;4862154;29;20138;-81
2021/08/18 06:25:01;;;;;;;4.47;2.03;;;15.90;93.80;;;;;;4863184;29;20132;-82
2021/08/18 06:27:27;;;;;;;4.80;1.95;;;15.90;93.70;;;;;;4862503;29;20061;-82
2021/08/18 06:29:53;;;;;;;3.72;1.88;;;15.90;93.70;;;;;;4861998;29;20060;-82
2021/08/18 06:32:18;;;;;;;3.42;1.73;;;15.90;93.80;;;;;;4863071;29;20057;-82
2021/08/18 06:34:45;;;;;;;4.10;2.10;;;16.00;93.80;;;;;;4862535;29;20498;-81
2021/08/18 06:37:10;;;;;;;3.60;1.60;;;16.00;94.00;;;;;;4862464;29;20068;-81
2021/08/18 06:39:37;;;;;;;4.40;2.13;;;15.90;93.80;;;;;;4862738;29;20101;-81
2021/08/18 06:42:03;;;;;;;3.97;1.98;;;16.00;93.90;;;;;;4862191;29;20135;-81
2021/08/18 06:44:29;;;;;;;5.20;2.42;;;16.00;93.90;;;;;;4862002;29;20053;-81
2021/08/18 06:46:54;;;;;;;4.85;2.25;;;16.00;94.00;;;;;;4862590;29;20057;-81
2021/08/18 06:49:20;;;;;;;8.05;2.70;;;16.00;94.20;;;;;;4862509;29;20077;-81
2021/08/18 06:51:46;;;;;;;4.75;2.78;;;16.00;94.20;;;;;;4861592;29;20057;-81
2021/08/18 06:54:12;;;;;;;6.00;2.85;;;16.00;94.20;;;;;;4862320;29;20105;-81
2021/08/18 06:56:37;;;;;;;8.35;2.50;;;16.10;94.30;;;;;;4861410;29;20459;-81
2021/08/18 06:59:03;;;;;;;9.77;3.10;;;16.10;94.20;;;;;;4862616;29;20045;-81
2021/08/18 07:01:29;;;;;;;9.55;3.00;;;16.10;94.30;;;;;;4862188;29;20050;-81
2021/08/18 07:03:54;;;;;;;7.35;3.20;;;16.10;94.40;;;;;;4861319;29;20225;-81
2021/08/18 07:06:20;;;;;;;5.07;2.22;;;16.10;94.40;;;;;;4862559;29;20122;-81
2021/08/18 07:08:46;;;;;;;7.15;3.08;;;16.20;94.10;;;;;;4862108;29;20057;-81
2021/08/18 07:11:11;;;;;;;7.10;2.95;;;16.20;94.20;;;;;;4860971;29;20052;-81
2021/08/18 07:13:38;;;;;;;7.18;2.80;;;16.20;94.20;;;;;;4861941;29;20060;-81
2021/08/18 07:16:04;;;;;;;8.98;3.10;;;16.20;94.20;;;;;;4862188;29;20071;-81
2021/08/18 07:18:30;;;;;;;7.95;3.13;;;16.30;94.40;;;;;;4860926;29;20053;-82
2021/08/18 07:20:56;;;;;;;5.63;2.65;;;16.30;94.50;;;;;;4861783;29;20053;-81
2021/08/18 07:23:22;;;;;;;9.18;3.05;;;16.30;94.20;;;;;;4861689;29;20055;-82
2021/08/18 07:25:48;;;;;;;7.10;3.05;;;16.40;94.40;;;;;;4860792;29;20050;-81
2021/08/18 07:28:13;;;;;;;7.78;3.30;;;16.40;94.40;;;;;;4861600;29;20057;-81
2021/08/18 07:30:39;;;;;;;5.80;2.88;;;16.40;94.50;;;;;;4861228;29;20414;-81
2021/08/18 07:33:04;;;;;;;8.10;3.10;;;16.40;94.30;;;;;;4861174;29;20053;-82
2021/08/18 07:35:30;;;;;;;8.60;3.50;;;16.50;94.50;;;;;;4861569;29;20530;-82
2021/08/18 07:37:56;;;;;;;8.25;3.17;;;16.50;94.50;;;;;;4861332;29;20053;-82
2021/08/18 07:40:23;;;;;;;8.07;2.85;;;16.50;94.40;;;;;;4860966;29;20049;-82
2021/08/18 07:42:48;;;;;;;8.18;3.30;;;16.50;94.40;;;;;;4861548;29;20057;-82
2021/08/18 07:45:14;;;;;;;5.90;2.80;;;16.50;94.40;;;;;;4861284;29;20456;-81
2021/08/18 07:47:40;;;;;;;8.90;2.92;;;16.60;94.40;;;;;;4861010;29;20088;-82
2021/08/18 07:50:06;;;;;;;9.52;3.40;;;16.60;94.30;;;;;;4861357;29;20491;-82
2021/08/18 07:52:32;;;;;;;8.55;3.25;;;16.60;94.50;;;;;;4861054;29;20050;-83
2021/08/18 07:54:57;;;;;;;9.88;3.38;;;16.60;94.30;;;;;;4860591;29;20053;-82
2021/08/18 07:57:23;;;;;;;6.47;3.10;;;16.70;94.40;;;;;;4861303;29;20132;-82
2021/08/18 07:59:51;;;;;;;8.05;3.13;;;16.70;94.40;;;;;;4861170;29;20077;-82
2021/08/18 08:02:23;;;;;;;10.20;3.83;;;16.80;94.50;;;;;;4861023;29;20483;-82
2021/08/18 08:04:48;;;;;;;9.27;3.65;;;16.80;94.60;;;;;;4861393;29;20049;-82
2021/08/18 08:07:15;;;;;;;12.55;3.88;;;16.80;94.50;;;;;;4860295;29;20058;-82
2021/08/18 08:09:41;;;;;;;6.35;3.00;;;16.90;94.50;;;;;;4861100;29;20092;-82
2021/08/18 08:12:07;;;;;;;13.13;3.38;;;16.90;94.50;;;;;;4861192;29;20136;-81
2021/08/18 08:14:33;;;;;;;10.02;3.47;;;16.90;94.60;;;;;;4860635;29;20056;-81
2021/08/18 08:16:58;;;;;;;9.27;3.70;;;17.00;94.50;;;;;;4861290;29;20057;-81
2021/08/18 08:19:24;;;;;;;8.80;4.07;;;17.00;94.70;;;;;;4861171;29;20483;-82
2021/08/18 08:21:49;;;;;;;8.23;3.38;;;17.10;94.70;;;;;;4860361;29;20495;-82
2021/08/18 08:24:15;;;;;;;9.05;3.90;;;17.10;94.50;;;;;;4861118;29;20057;-82
2021/08/18 08:26:42;;;;;;;8.63;3.65;;;17.10;94.50;;;;;;4861072;29;20532;-82
2021/08/18 08:29:08;;;;;;;7.20;3.08;;;17.10;94.40;;;;;;4860271;29;20054;-82
2021/08/18 08:31:34;;;;;;;9.07;3.22;;;17.20;94.20;;;;;;4862788;29;20089;-81
2021/08/18 08:33:59;;;;;;;6.68;3.10;;;17.20;94.20;;;;;;4864553;29;20060;-82
2021/08/18 08:36:25;;;;;;;7.70;3.22;;;17.30;94.10;;;;;;4864215;29;20060;-82
2021/08/18 08:38:51;;;;;;;9.88;3.50;;;17.30;94.00;;;;;;4864566;29;20050;-83
2021/08/18 08:41:17;;;;;;;8.18;3.53;;;17.40;94.10;;;;;;4864402;29;20057;-83
2021/08/18 08:43:43;;;;;;;8.73;3.33;;;17.40;94.20;;;;;;4864341;29;20054;-81
2021/08/18 08:46:09;;;;;;;8.80;3.38;;;17.50;94.10;;;;;;4864398;29;20140;-82
2021/08/18 08:48:37;;;;;;;8.18;3.67;;;17.50;94.10;;;;;;4864212;29;20133;-82
2021/08/18 08:51:05;;;;;;;9.43;3.67;;;17.50;94.10;;;;;;4863619;29;20056;-82
2021/08/18 08:53:31;;;;;;;11.07;4.07;;;17.60;94.00;;;;;;4864364;29;20058;-83
2021/08/18 08:55:57;;;;;;;9.43;3.53;;;17.60;93.90;;;;;;4864227;29;20053;-82
2021/08/18 08:58:23;;;;;;;6.20;3.28;;;17.60;93.90;;;;;;4863714;29;20554;-82
2021/08/18 09:00:48;;;;;;;6.60;3.15;;;17.70;93.70;;;;;;4864305;29;20086;-82
2021/08/18 09:03:22;;;;;;;6.95;3.15;;;17.70;93.70;;;;;;4863455;29;20049;-82
2021/08/18 09:05:48;;;;;;;8.77;3.25;;;17.70;93.70;;;;;;4864165;29;20064;-83
2021/08/18 09:08:16;;;;;;;9.18;3.53;;;17.70;93.70;;;;;;4864233;29;20102;-82
2021/08/18 09:11:05;;;;;;;9.52;3.30;;;17.80;93.60;;;;;;4863269;29;20057;-83
2021/08/18 09:13:51;;;;;;;6.22;2.70;;;17.80;93.40;;;;;;4864004;29;20125;-84
2021/08/18 09:16:20;;;;;;;5.30;3.05;;;17.80;93.30;;;;;;4863924;29;20057;-83
2021/08/18 09:18:53;;;;;;;8.65;3.05;;;17.80;93.20;;;;;;4863593;29;20387;-83
2021/08/18 09:21:40;;;;;;;8.90;3.20;;;17.80;93.10;;;;;;4863776;29;20416;-84
2021/08/18 09:24:11;;;;;;;7.88;2.92;;;17.80;93.10;;;;;;4863472;29;20101;-82
2021/08/18 09:26:55;;;;;;;7.18;3.00;;;17.90;93.10;;;;;;4863051;29;20089;-83
2021/08/18 09:29:44;;;;;;;5.72;2.85;;;17.90;93.00;;;;;;4863918;29;20061;-83
2021/08/18 09:32:30;;;;;;;7.45;3.45;;;17.90;93.00;;;;;;4863061;29;20092;-83
2021/08/18 09:35:01;;;;;;;8.32;3.60;;;18.00;93.10;;;;;;4864119;29;20049;-83
2021/08/18 09:37:29;;;;;;;8.52;3.47;;;18.00;93.20;;;;;;4863782;29;20410;-82
2021/08/18 09:39:55;;;;;;;6.65;2.95;;;18.10;93.20;;;;;;4863320;29;20490;-83
2021/08/18 09:42:26;;;;;;;6.10;3.22;;;18.10;93.00;;;;;;4863279;29;20081;-83
2021/08/18 09:45:34;;;;;;;7.07;3.50;;;18.20;92.90;;;;;;4863792;29;20422;-82
2021/08/18 09:48:05;;;;;;;8.65;3.67;;;18.20;92.80;;;;;;4861631;29;20093;-84
2021/08/18 09:50:45;;;;;;;7.32;3.40;;;18.20;92.80;;;;;;4863791;29;20061;-83
2021/08/18 09:53:15;;;;;;;7.68;3.50;;;18.30;92.70;;;;;;4863016;29;20414;-83
2021/08/18 09:55:52;;;;;;;6.85;3.40;;;18.30;92.70;;;;;;4863659;29;20049;-83
2021/08/18 09:58:24;;;;;;;6.32;3.65;;;18.30;92.60;;;;;;4863109;29;20505;-84
2021/08/18 10:00:51;;;;;;;5.90;3.65;;;18.40;92.60;;;;;;4862690;29;20049;-85
2021/08/18 10:03:18;;;;;;;8.75;3.65;;;18.40;92.40;;;;;;4863317;29;20045;-84
2021/08/18 10:05:44;;;;;;;8.85;3.67;;;18.50;92.30;;;;;;4862809;29;20057;-82
2021/08/18 10:08:09;;;;;;;8.38;3.88;;;18.50;92.30;;;;;;4862220;29;20055;-84
2021/08/18 10:10:38;;;;;;;7.65;3.85;;;18.50;92.20;;;;;;4863032;29;20080;-83
2021/08/18 10:13:08;;;;;;;8.07;3.85;;;18.50;92.00;;;;;;4862905;29;20059;-83
2021/08/18 10:15:35;;;;;;;7.28;3.80;;;18.60;92.00;;;;;;4862580;29;20054;-83
2021/08/18 10:18:02;;;;;;;10.00;4.40;;;18.60;91.90;;;;;;4862842;29;20053;-85
2021/08/18 10:20:28;;;;;;;8.02;4.50;;;18.60;91.90;;;;;;4862616;29;20053;-83
2021/08/18 10:23:02;;;;;;;9.05;4.60;;;18.60;91.90;;;;;;4862336;29;20606;-83
2021/08/18 10:25:38;;;;;;;7.22;4.07;;;18.60;91.90;;;;;;4862813;29;20053;-83
2021/08/18 10:28:06;;;;;;;6.38;3.92;;;18.70;91.80;;;;;;4861898;29;20057;-83
2021/08/18 10:30:44;;;;;;;7.95;3.72;;;18.70;91.80;;;;;;4862700;29;20124;-83
2021/08/18 10:33:10;;;;;;;6.22;3.92;;;18.80;91.70;;;;;;4862298;29;20410;-84
2021/08/18 10:35:35;;;;;;;7.90;3.90;;;18.80;91.60;;;;;;4863213;29;20050;-83
2021/08/18 10:38:23;;;;;;;7.82;3.60;;;18.80;91.50;;;;;;4862892;29;20499;-83
2021/08/18 10:40:49;;;;;;;8.30;4.22;;;18.90;91.20;;;;;;4862980;29;20137;-84
2021/08/18 10:43:53;;;;;;;6.78;3.72;;;18.90;91.20;;;;;;4862500;29;20069;-84
2021/08/18 10:46:19;;;;;;;7.85;3.88;;;18.90;91.10;;;;;;4863191;29;20057;-84
2021/08/18 10:48:53;;;;;;;7.20;4.15;;;19.00;91.00;;;;;;4862233;29;20125;-84
2021/08/18 10:51:50;;;;;;;9.07;3.92;;;19.00;90.80;;;;;;4863174;29;20057;-85
2021/08/18 10:54:27;;;;;;;6.47;4.03;;;19.00;90.60;;;;;;4861269;29;20049;-85
2021/08/18 10:56:59;;;;;;;9.52;4.10;;;19.10;90.40;;;;;;4861716;29;20077;-85
2021/08/18 10:59:37;;;;;;;6.25;3.40;;;19.20;90.30;;;;;;4862391;29;20555;-85
2021/08/18 11:02:29;;;;;;;6.57;3.50;;;19.20;90.10;;;;;;4862123;29;20053;-84
2021/08/18 11:04:55;;;;;;;6.70;3.72;;;19.20;89.90;;;;;;4861331;29;20419;-84
2021/08/18 11:07:20;;;;;;;8.02;4.10;;;19.30;89.70;;;;;;4862143;29;20076;-85
2021/08/18 11:09:49;;;;;;;6.97;4.22;;;19.20;89.50;;;;;;4861595;29;20054;-84
2021/08/18 11:12:57;;;;;;;7.10;4.00;;;19.30;89.40;;;;;;4862192;29;20059;-85
2021/08/18 11:15:26;;;;;;;7.80;4.30;;;19.30;89.20;;;;;;4822930;29;20051;-84
2021/08/18 11:17:56;;;;;;;8.38;4.30;;;19.30;89.80;;;;;;4822776;29;20104;-86
2021/08/18 11:20:28;;;;;;;9.82;4.10;;;19.40;89.90;;;;;;4844149;29;20132;-86
2021/08/18 11:23:00;;;;;;;6.82;3.40;;;19.40;88.70;;;;;;4861796;29;20406;-84
2021/08/18 11:25:26;;;;;;;6.68;3.30;;;19.40;88.10;;;;;;4862262;29;20136;-84
2021/08/18 11:27:58;;;;;;;8.38;2.90;;;19.40;87.80;;;;;;4861989;29;20088;-85
2021/08/18 11:30:25;;;;;;;5.35;2.90;;;19.40;87.20;;;;;;4862549;29;20064;-86
2021/08/18 11:32:52;;;;;;;7.00;2.80;;;19.40;87.60;;;;;;4861925;29;20578;-85
2021/08/18 11:35:30;;;;;;;5.43;2.80;;;19.50;87.20;;;;;;4862298;29;20057;-83
2021/08/18 11:38:07;;;;;;;6.00;2.90;;;19.50;87.10;;;;;;4861943;29;20149;-84
2021/08/18 11:40:34;;;;;;;5.72;2.42;;;19.60;87.60;;;;;;4862529;29;20459;-83
2021/08/18 11:43:01;;;;;;;5.78;2.90;;;19.60;87.30;;;;;;4862438;29;20076;-85
2021/08/18 11:45:27;;;;;;;4.57;2.60;;;19.60;87.10;;;;;;4862401;29;20117;-84
2021/08/18 11:48:10;;;;;;;7.18;3.00;;;19.70;86.70;;;;;;4862967;29;20456;-85
2021/08/18 11:50:37;;;;;;;;;;;19.70;86.40;;;;;;4862942;29;20057;-85
2021/08/18 11:53:06;;;;;;;7.25;2.60;;;19.70;86.50;;;;;;4861454;29;19980;-85
2021/08/18 11:55:32;;;;;;;6.40;2.35;;;19.80;86.60;;;;;;4861712;29;20057;-85
2021/08/18 11:58:04;;;;;;;4.95;2.30;;;19.80;86.80;;;;;;4861773;29;20459;-84
2021/08/18 12:00:33;;;;;;;5.30;2.30;;;19.80;86.50;;;;;;4861329;29;20049;-84
2021/08/18 12:03:00;;;;;;;6.20;2.38;;;19.90;86.90;;;;;;4861939;29;20073;-84
2021/08/18 12:05:30;;;;;;;6.88;2.60;;;20.00;87.50;;;;;;4861215;29;20053;-85
2021/08/18 12:08:11;;;;;;;5.35;2.30;;;20.10;87.00;;;;;;4861874;29;20073;-84
2021/08/18 12:10:45;;;;;;;5.65;2.33;;;20.20;86.40;;;;;;4861907;29;20062;-85
2021/08/18 12:13:14;;;;;;;4.88;1.80;;;20.30;85.70;;;;;;4861186;29;20094;-84
2021/08/18 12:15:44;;;;;;;5.68;2.05;;;20.40;85.60;;;;;;4862136;29;20498;-84
2021/08/18 12:18:30;;;;;;;4.60;1.77;;;20.40;84.80;;;;;;4862347;29;20137;-83
2021/08/18 12:21:32;;;;;;;5.65;1.73;;;20.50;83.90;;;;;;4861198;29;20054;-84
2021/08/18 12:24:07;;;;;;;6.37;1.73;;;20.60;83.90;;;;;;4861100;29;20534;-85
2021/08/18 12:26:37;;;;;;;3.95;1.38;;;20.60;83.20;;;;;;4861147;29;20065;-85
2021/08/18 12:29:05;;;;;;;7.22;1.92;;;20.70;82.90;;;;;;4861020;29;20046;-86
2021/08/18 12:31:50;;;;;;;6.97;2.00;;;20.70;82.80;;;;;;4861018;29;20061;-86
2021/08/18 12:34:16;;;;;;;6.43;2.00;;;20.70;82.10;;;;;;4860350;29;20136;-86
2021/08/18 12:36:42;;;;;;;4.68;2.05;;;20.70;82.50;;;;;;4861223;29;20145;-85
2021/08/18 12:39:08;;;;;;;5.72;2.20;;;20.70;82.00;;;;;;4861435;29;20049;-86
2021/08/18 12:41:35;;;;;;;4.90;2.20;;;20.80;81.70;;;;;;4860789;29;20118;-87
2021/08/18 12:44:10;;;;;;;5.10;2.13;;;20.80;81.40;;;;;;4861149;29;20060;-85
2021/08/18 12:46:37;;;;;;;4.93;2.20;;;20.80;81.50;;;;;;4861116;29;20057;-85
2021/08/18 12:49:26;;;;;;;6.47;2.25;;;20.80;81.50;;;;;;4860794;29;20058;-87
2021/08/18 12:51:53;;;;;;;4.53;2.00;;;20.80;81.30;;;;;;4860762;29;20502;-84